sensor_id;sensor_type;location;lat;lon;timestamp;P1;durP1;ratioP1;P2;durP2;ratioP2
69847;SDS011;57143;55.940;37.496;2023-08-31T00:02:03;10.82;;;5.10;;
69847;SDS011;57143;55.940;37.496;2023-08-31T00:04:31;13.23;;;4.90;;
69847;SDS011;57143;55.940;37.496;2023-08-31T00:07:00;9.80;;;4.47;;
69847;SDS011;57143;55.940;37.496;2023-08-31T00:09:27;12.80;;;5.45;;
69847;SDS011;57143;55.940;37.496;2023-08-31T00:11:55;12.80;;;5.20;;
69847;SDS011;57143;55.940;37.496;2023-08-31T00:14:23;12.25;;;5.32;;
69847;SDS011;57143;55.940;37.496;2023-08-31T00:16:51;12.82;;;5.40;;
69847;SDS011;57143;55.940;37.496;2023-08-31T00:19:18;10.90;;;4.50;;
69847;SDS011;57143;55.940;37.496;2023-08-31T00:21:45;12.10;;;5.25;;
69847;SDS011;57143;55.940;37.496;2023-08-31T00:24:15;14.98;;;5.82;;
69847;SDS011;57143;55.940;37.496;2023-08-31T00:26:42;11.35;;;6.00;;
69847;SDS011;57143;55.940;37.496;2023-08-31T00:29:10;14.30;;;6.63;;
69847;SDS011;57143;55.940;37.496;2023-08-31T00:31:41;15.93;;;5.70;;
69847;SDS011;57143;55.940;37.496;2023-08-31T00:34:10;12.95;;;5.50;;
69847;SDS011;57143;55.940;37.496;2023-08-31T00:36:40;11.48;;;6.25;;
69847;SDS011;57143;55.940;37.496;2023-08-31T00:39:07;15.02;;;5.72;;
69847;SDS011;57143;55.940;37.496;2023-08-31T00:41:37;16.77;;;6.70;;
69847;SDS011;57143;55.940;37.496;2023-08-31T00:44:05;16.40;;;6.37;;
69847;SDS011;57143;55.940;37.496;2023-08-31T00:46:32;15.40;;;6.68;;
69847;SDS011;57143;55.940;37.496;2023-08-31T00:49:01;16.33;;;6.30;;
69847;SDS011;57143;55.940;37.496;2023-08-31T00:51:29;15.60;;;6.30;;
69847;SDS011;57143;55.940;37.496;2023-08-31T00:53:57;19.17;;;6.38;;
69847;SDS011;57143;55.940;37.496;2023-08-31T00:56:24;18.50;;;7.00;;
69847;SDS011;57143;55.940;37.496;2023-08-31T00:58:53;16.30;;;7.13;;
69847;SDS011;57143;55.940;37.496;2023-08-31T01:01:22;15.80;;;6.35;;
69847;SDS011;57143;55.940;37.496;2023-08-31T01:03:56;16.30;;;6.50;;
69847;SDS011;57143;55.940;37.496;2023-08-31T01:06:33;16.40;;;6.32;;
69847;SDS011;57143;55.940;37.496;2023-08-31T01:09:07;13.47;;;6.60;;
69847;SDS011;57143;55.940;37.496;2023-08-31T01:11:44;12.90;;;5.95;;
69847;SDS011;57143;55.940;37.496;2023-08-31T01:14:23;18.25;;;6.80;;
69847;SDS011;57143;55.940;37.496;2023-08-31T01:16:54;12.13;;;6.53;;
69847;SDS011;57143;55.940;37.496;2023-08-31T01:19:30;12.52;;;5.75;;
69847;SDS011;57143;55.940;37.496;2023-08-31T01:22:09;13.53;;;6.13;;
69847;SDS011;57143;55.940;37.496;2023-08-31T01:24:42;16.35;;;6.43;;
69847;SDS011;57143;55.940;37.496;2023-08-31T01:27:10;16.77;;;6.78;;
69847;SDS011;57143;55.940;37.496;2023-08-31T01:29:37;12.70;;;6.18;;
69847;SDS011;57143;55.940;37.496;2023-08-31T01:32:05;13.90;;;6.93;;
69847;SDS011;57143;55.940;37.496;2023-08-31T01:34:33;17.00;;;7.33;;
69847;SDS011;57143;55.940;37.496;2023-08-31T01:37:03;14.75;;;7.00;;
69847;SDS011;57143;55.940;37.496;2023-08-31T01:39:38;14.95;;;7.28;;
69847;SDS011;57143;55.940;37.496;2023-08-31T01:42:11;14.98;;;7.30;;
69847;SDS011;57143;55.940;37.496;2023-08-31T01:44:40;15.40;;;7.22;;
69847;SDS011;57143;55.940;37.496;2023-08-31T01:47:08;15.80;;;6.87;;
69847;SDS011;57143;55.940;37.496;2023-08-31T01:49:37;14.80;;;7.90;;
69847;SDS011;57143;55.940;37.496;2023-08-31T01:52:04;16.92;;;7.78;;
69847;SDS011;57143;55.940;37.496;2023-08-31T01:54:33;15.35;;;7.70;;
69847;SDS011;57143;55.940;37.496;2023-08-31T01:57:02;15.32;;;7.10;;
69847;SDS011;57143;55.940;37.496;2023-08-31T01:59:32;14.27;;;7.37;;
69847;SDS011;57143;55.940;37.496;2023-08-31T02:02:00;17.52;;;7.45;;
69847;SDS011;57143;55.940;37.496;2023-08-31T02:04:28;16.27;;;7.82;;
69847;SDS011;57143;55.940;37.496;2023-08-31T02:06:55;15.70;;;7.45;;
69847;SDS011;57143;55.940;37.496;2023-08-31T02:09:22;15.50;;;7.35;;
69847;SDS011;57143;55.940;37.496;2023-08-31T02:11:49;14.30;;;6.77;;
69847;SDS011;57143;55.940;37.496;2023-08-31T02:14:16;14.32;;;7.18;;
69847;SDS011;57143;55.940;37.496;2023-08-31T02:16:45;14.65;;;7.43;;
69847;SDS011;57143;55.940;37.496;2023-08-31T02:19:12;14.80;;;7.13;;
69847;SDS011;57143;55.940;37.496;2023-08-31T02:21:39;15.70;;;7.90;;
69847;SDS011;57143;55.940;37.496;2023-08-31T02:24:07;16.03;;;7.53;;
69847;SDS011;57143;55.940;37.496;2023-08-31T02:26:35;16.85;;;7.82;;
69847;SDS011;57143;55.940;37.496;2023-08-31T02:29:03;13.93;;;7.43;;
69847;SDS011;57143;55.940;37.496;2023-08-31T02:31:30;16.70;;;7.85;;
69847;SDS011;57143;55.940;37.496;2023-08-31T02:33:59;15.48;;;7.18;;
69847;SDS011;57143;55.940;37.496;2023-08-31T02:36:26;18.03;;;7.73;;
69847;SDS011;57143;55.940;37.496;2023-08-31T02:38:53;17.20;;;8.15;;
69847;SDS011;57143;55.940;37.496;2023-08-31T02:41:21;21.40;;;8.30;;
69847;SDS011;57143;55.940;37.496;2023-08-31T02:43:49;15.95;;;7.22;;
69847;SDS011;57143;55.940;37.496;2023-08-31T02:46:17;17.08;;;7.25;;
69847;SDS011;57143;55.940;37.496;2023-08-31T02:48:44;14.60;;;7.07;;
69847;SDS011;57143;55.940;37.496;2023-08-31T02:51:14;16.58;;;7.72;;
69847;SDS011;57143;55.940;37.496;2023-08-31T02:53:41;16.05;;;7.97;;
69847;SDS011;57143;55.940;37.496;2023-08-31T02:56:09;15.50;;;6.80;;
69847;SDS011;57143;55.940;37.496;2023-08-31T02:58:36;15.90;;;8.32;;
69847;SDS011;57143;55.940;37.496;2023-08-31T03:01:06;15.30;;;8.10;;
69847;SDS011;57143;55.940;37.496;2023-08-31T03:03:36;15.23;;;7.25;;
69847;SDS011;57143;55.940;37.496;2023-08-31T03:06:03;16.33;;;7.63;;
69847;SDS011;57143;55.940;37.496;2023-08-31T03:08:34;15.90;;;6.88;;
69847;SDS011;57143;55.940;37.496;2023-08-31T03:11:01;13.88;;;6.43;;
69847;SDS011;57143;55.940;37.496;2023-08-31T03:13:29;15.97;;;7.73;;
69847;SDS011;57143;55.940;37.496;2023-08-31T03:15:57;15.48;;;7.10;;
69847;SDS011;57143;55.940;37.496;2023-08-31T03:18:25;15.45;;;7.40;;
69847;SDS011;57143;55.940;37.496;2023-08-31T03:20:53;14.32;;;7.30;;
69847;SDS011;57143;55.940;37.496;2023-08-31T03:23:21;16.60;;;7.43;;
69847;SDS011;57143;55.940;37.496;2023-08-31T03:25:50;14.87;;;7.33;;
69847;SDS011;57143;55.940;37.496;2023-08-31T03:28:17;14.40;;;6.97;;
69847;SDS011;57143;55.940;37.496;2023-08-31T03:30:45;13.70;;;6.80;;
69847;SDS011;57143;55.940;37.496;2023-08-31T03:33:13;16.52;;;7.20;;
69847;SDS011;57143;55.940;37.496;2023-08-31T03:35:40;13.43;;;6.70;;
69847;SDS011;57143;55.940;37.496;2023-08-31T03:38:10;14.43;;;7.23;;
69847;SDS011;57143;55.940;37.496;2023-08-31T03:40:37;17.70;;;7.95;;
69847;SDS011;57143;55.940;37.496;2023-08-31T03:43:05;15.73;;;7.78;;
69847;SDS011;57143;55.940;37.496;2023-08-31T03:45:33;16.27;;;6.97;;
69847;SDS011;57143;55.940;37.496;2023-08-31T03:48:00;15.80;;;7.60;;
69847;SDS011;57143;55.940;37.496;2023-08-31T03:50:27;17.20;;;7.23;;
69847;SDS011;57143;55.940;37.496;2023-08-31T03:52:54;17.27;;;7.78;;
69847;SDS011;57143;55.940;37.496;2023-08-31T03:55:22;17.38;;;7.50;;
69847;SDS011;57143;55.940;37.496;2023-08-31T03:57:49;20.08;;;7.82;;
69847;SDS011;57143;55.940;37.496;2023-08-31T04:00:18;16.45;;;7.30;;
69847;SDS011;57143;55.940;37.496;2023-08-31T04:02:45;14.77;;;6.90;;
69847;SDS011;57143;55.940;37.496;2023-08-31T04:05:12;17.58;;;7.70;;
69847;SDS011;57143;55.940;37.496;2023-08-31T04:07:41;20.73;;;8.00;;
69847;SDS011;57143;55.940;37.496;2023-08-31T04:10:09;15.52;;;6.75;;
69847;SDS011;57143;55.940;37.496;2023-08-31T04:12:37;18.10;;;7.50;;
69847;SDS011;57143;55.940;37.496;2023-08-31T04:15:15;13.70;;;7.50;;
69847;SDS011;57143;55.940;37.496;2023-08-31T04:17:44;14.40;;;7.30;;
69847;SDS011;57143;55.940;37.496;2023-08-31T04:20:11;14.48;;;7.20;;
69847;SDS011;57143;55.940;37.496;2023-08-31T04:22:39;14.02;;;6.80;;
69847;SDS011;57143;55.940;37.496;2023-08-31T04:25:06;14.57;;;7.07;;
69847;SDS011;57143;55.940;37.496;2023-08-31T04:27:34;15.10;;;7.20;;
69847;SDS011;57143;55.940;37.496;2023-08-31T04:30:04;18.65;;;6.90;;
69847;SDS011;57143;55.940;37.496;2023-08-31T04:32:33;14.25;;;7.15;;
69847;SDS011;57143;55.940;37.496;2023-08-31T04:35:03;15.07;;;7.30;;
69847;SDS011;57143;55.940;37.496;2023-08-31T04:37:31;13.20;;;6.70;;
69847;SDS011;57143;55.940;37.496;2023-08-31T04:39:58;16.50;;;7.03;;
69847;SDS011;57143;55.940;37.496;2023-08-31T04:42:25;15.57;;;6.88;;
69847;SDS011;57143;55.940;37.496;2023-08-31T04:44:53;16.30;;;7.40;;
69847;SDS011;57143;55.940;37.496;2023-08-31T04:47:20;20.00;;;7.63;;
69847;SDS011;57143;55.940;37.496;2023-08-31T04:49:47;14.70;;;7.82;;
69847;SDS011;57143;55.940;37.496;2023-08-31T04:52:15;14.00;;;6.97;;
69847;SDS011;57143;55.940;37.496;2023-08-31T04:54:43;13.90;;;7.90;;
69847;SDS011;57143;55.940;37.496;2023-08-31T04:57:10;19.13;;;8.35;;
69847;SDS011;57143;55.940;37.496;2023-08-31T04:59:37;16.40;;;7.72;;
69847;SDS011;57143;55.940;37.496;2023-08-31T05:02:04;22.48;;;8.48;;
69847;SDS011;57143;55.940;37.496;2023-08-31T05:04:31;18.10;;;8.47;;
69847;SDS011;57143;55.940;37.496;2023-08-31T05:06:59;19.10;;;8.50;;
69847;SDS011;57143;55.940;37.496;2023-08-31T05:09:28;17.88;;;9.23;;
69847;SDS011;57143;55.940;37.496;2023-08-31T05:12:00;22.73;;;10.07;;
69847;SDS011;57143;55.940;37.496;2023-08-31T05:14:27;17.55;;;8.82;;
69847;SDS011;57143;55.940;37.496;2023-08-31T05:16:55;20.03;;;9.33;;
69847;SDS011;57143;55.940;37.496;2023-08-31T05:19:22;17.17;;;8.85;;
69847;SDS011;57143;55.940;37.496;2023-08-31T05:21:49;18.95;;;8.85;;
69847;SDS011;57143;55.940;37.496;2023-08-31T05:24:17;16.88;;;9.02;;
69847;SDS011;57143;55.940;37.496;2023-08-31T05:26:45;16.00;;;7.95;;
69847;SDS011;57143;55.940;37.496;2023-08-31T05:29:13;18.67;;;8.67;;
69847;SDS011;57143;55.940;37.496;2023-08-31T05:31:40;15.27;;;8.27;;
69847;SDS011;57143;55.940;37.496;2023-08-31T05:34:08;16.17;;;8.05;;
69847;SDS011;57143;55.940;37.496;2023-08-31T05:36:36;15.13;;;8.40;;
69847;SDS011;57143;55.940;37.496;2023-08-31T05:39:03;18.52;;;8.15;;
69847;SDS011;57143;55.940;37.496;2023-08-31T05:41:30;15.60;;;7.97;;
69847;SDS011;57143;55.940;37.496;2023-08-31T05:43:59;22.98;;;8.25;;
69847;SDS011;57143;55.940;37.496;2023-08-31T05:46:26;15.70;;;7.72;;
69847;SDS011;57143;55.940;37.496;2023-08-31T05:48:54;19.73;;;8.23;;
69847;SDS011;57143;55.940;37.496;2023-08-31T05:51:21;18.63;;;8.25;;
69847;SDS011;57143;55.940;37.496;2023-08-31T05:53:48;12.83;;;7.47;;
69847;SDS011;57143;55.940;37.496;2023-08-31T05:56:15;16.88;;;8.45;;
69847;SDS011;57143;55.940;37.496;2023-08-31T05:58:43;16.23;;;8.45;;
69847;SDS011;57143;55.940;37.496;2023-08-31T06:01:11;15.30;;;7.88;;
69847;SDS011;57143;55.940;37.496;2023-08-31T06:03:39;16.45;;;8.27;;
69847;SDS011;57143;55.940;37.496;2023-08-31T06:06:06;19.13;;;8.37;;
69847;SDS011;57143;55.940;37.496;2023-08-31T06:08:33;18.02;;;8.30;;
69847;SDS011;57143;55.940;37.496;2023-08-31T06:11:00;18.52;;;8.63;;
69847;SDS011;57143;55.940;37.496;2023-08-31T06:13:28;16.15;;;7.70;;
69847;SDS011;57143;55.940;37.496;2023-08-31T06:15:55;19.77;;;9.02;;
69847;SDS011;57143;55.940;37.496;2023-08-31T06:18:24;20.77;;;7.57;;
69847;SDS011;57143;55.940;37.496;2023-08-31T06:20:52;21.55;;;8.77;;
69847;SDS011;57143;55.940;37.496;2023-08-31T06:23:19;16.73;;;7.97;;
69847;SDS011;57143;55.940;37.496;2023-08-31T06:25:46;21.05;;;8.55;;
69847;SDS011;57143;55.940;37.496;2023-08-31T06:28:13;18.33;;;7.60;;
69847;SDS011;57143;55.940;37.496;2023-08-31T06:30:41;18.73;;;8.23;;
69847;SDS011;57143;55.940;37.496;2023-08-31T06:33:11;26.48;;;7.95;;
69847;SDS011;57143;55.940;37.496;2023-08-31T06:35:40;20.10;;;8.32;;
69847;SDS011;57143;55.940;37.496;2023-08-31T06:38:08;17.00;;;8.85;;
69847;SDS011;57143;55.940;37.496;2023-08-31T06:40:35;16.33;;;8.13;;
69847;SDS011;57143;55.940;37.496;2023-08-31T06:43:02;18.67;;;7.87;;
69847;SDS011;57143;55.940;37.496;2023-08-31T06:45:30;14.57;;;7.55;;
69847;SDS011;57143;55.940;37.496;2023-08-31T06:47:57;19.17;;;7.82;;
69847;SDS011;57143;55.940;37.496;2023-08-31T06:50:25;15.75;;;7.35;;
69847;SDS011;57143;55.940;37.496;2023-08-31T06:52:53;16.85;;;8.02;;
69847;SDS011;57143;55.940;37.496;2023-08-31T06:55:21;17.60;;;7.80;;
69847;SDS011;57143;55.940;37.496;2023-08-31T06:57:48;17.98;;;8.68;;
69847;SDS011;57143;55.940;37.496;2023-08-31T07:00:15;16.55;;;8.02;;
69847;SDS011;57143;55.940;37.496;2023-08-31T07:02:43;18.35;;;7.80;;
69847;SDS011;57143;55.940;37.496;2023-08-31T07:05:10;22.45;;;7.55;;
69847;SDS011;57143;55.940;37.496;2023-08-31T07:07:38;15.27;;;7.73;;
69847;SDS011;57143;55.940;37.496;2023-08-31T07:10:07;13.52;;;8.20;;
69847;SDS011;57143;55.940;37.496;2023-08-31T07:12:34;16.35;;;7.90;;
69847;SDS011;57143;55.940;37.496;2023-08-31T07:15:01;14.60;;;7.80;;
69847;SDS011;57143;55.940;37.496;2023-08-31T07:17:29;15.68;;;7.93;;
69847;SDS011;57143;55.940;37.496;2023-08-31T07:19:57;15.47;;;8.47;;
69847;SDS011;57143;55.940;37.496;2023-08-31T07:22:24;17.67;;;7.97;;
69847;SDS011;57143;55.940;37.496;2023-08-31T07:24:51;15.35;;;7.78;;
69847;SDS011;57143;55.940;37.496;2023-08-31T07:27:19;16.95;;;8.23;;
69847;SDS011;57143;55.940;37.496;2023-08-31T07:29:46;19.70;;;7.57;;
69847;SDS011;57143;55.940;37.496;2023-08-31T07:32:13;15.90;;;7.83;;
69847;SDS011;57143;55.940;37.496;2023-08-31T07:34:40;13.00;;;7.07;;
69847;SDS011;57143;55.940;37.496;2023-08-31T07:37:07;16.52;;;7.45;;
69847;SDS011;57143;55.940;37.496;2023-08-31T07:39:35;20.40;;;7.47;;
69847;SDS011;57143;55.940;37.496;2023-08-31T07:42:02;11.95;;;6.97;;
69847;SDS011;57143;55.940;37.496;2023-08-31T07:44:30;13.33;;;6.87;;
69847;SDS011;57143;55.940;37.496;2023-08-31T07:46:57;16.10;;;6.70;;
69847;SDS011;57143;55.940;37.496;2023-08-31T07:49:24;14.55;;;6.60;;
69847;SDS011;57143;55.940;37.496;2023-08-31T07:51:52;18.27;;;7.63;;
69847;SDS011;57143;55.940;37.496;2023-08-31T07:54:19;15.85;;;7.10;;
69847;SDS011;57143;55.940;37.496;2023-08-31T07:56:46;16.53;;;7.33;;
69847;SDS011;57143;55.940;37.496;2023-08-31T07:59:13;17.67;;;7.72;;
69847;SDS011;57143;55.940;37.496;2023-08-31T08:01:42;13.23;;;6.60;;
69847;SDS011;57143;55.940;37.496;2023-08-31T08:04:10;14.15;;;6.07;;
69847;SDS011;57143;55.940;37.496;2023-08-31T08:06:37;16.45;;;6.38;;
69847;SDS011;57143;55.940;37.496;2023-08-31T08:09:05;14.57;;;5.90;;
69847;SDS011;57143;55.940;37.496;2023-08-31T08:11:34;13.57;;;6.55;;
69847;SDS011;57143;55.940;37.496;2023-08-31T08:14:01;14.02;;;6.97;;
69847;SDS011;57143;55.940;37.496;2023-08-31T08:16:29;17.27;;;6.63;;
69847;SDS011;57143;55.940;37.496;2023-08-31T08:18:58;16.63;;;6.97;;
69847;SDS011;57143;55.940;37.496;2023-08-31T08:21:25;12.53;;;6.73;;
69847;SDS011;57143;55.940;37.496;2023-08-31T08:23:52;14.27;;;6.00;;
69847;SDS011;57143;55.940;37.496;2023-08-31T08:26:19;15.07;;;7.43;;
69847;SDS011;57143;55.940;37.496;2023-08-31T08:28:46;17.13;;;6.72;;
69847;SDS011;57143;55.940;37.496;2023-08-31T08:31:13;13.43;;;6.53;;
69847;SDS011;57143;55.940;37.496;2023-08-31T08:33:40;15.63;;;6.47;;
69847;SDS011;57143;55.940;37.496;2023-08-31T08:36:09;13.98;;;6.22;;
69847;SDS011;57143;55.940;37.496;2023-08-31T08:38:36;14.15;;;6.57;;
69847;SDS011;57143;55.940;37.496;2023-08-31T08:41:06;14.57;;;6.10;;
69847;SDS011;57143;55.940;37.496;2023-08-31T08:43:33;13.70;;;7.03;;
69847;SDS011;57143;55.940;37.496;2023-08-31T08:46:03;14.97;;;5.80;;
69847;SDS011;57143;55.940;37.496;2023-08-31T08:48:32;12.00;;;6.25;;
69847;SDS011;57143;55.940;37.496;2023-08-31T08:51:01;12.07;;;5.47;;
69847;SDS011;57143;55.940;37.496;2023-08-31T08:53:31;13.63;;;5.65;;
69847;SDS011;57143;55.940;37.496;2023-08-31T08:55:58;14.05;;;5.70;;
69847;SDS011;57143;55.940;37.496;2023-08-31T08:58:31;15.13;;;5.93;;
69847;SDS011;57143;55.940;37.496;2023-08-31T09:00:58;13.20;;;5.70;;
69847;SDS011;57143;55.940;37.496;2023-08-31T09:03:26;12.82;;;5.82;;
69847;SDS011;57143;55.940;37.496;2023-08-31T09:05:53;12.45;;;5.28;;
69847;SDS011;57143;55.940;37.496;2023-08-31T09:08:25;14.88;;;5.95;;
69847;SDS011;57143;55.940;37.496;2023-08-31T09:10:55;13.77;;;5.77;;
69847;SDS011;57143;55.940;37.496;2023-08-31T09:13:25;14.77;;;6.22;;
69847;SDS011;57143;55.940;37.496;2023-08-31T09:15:54;18.02;;;6.63;;
69847;SDS011;57143;55.940;37.496;2023-08-31T09:18:23;12.43;;;5.28;;
69847;SDS011;57143;55.940;37.496;2023-08-31T09:20:51;13.60;;;5.45;;
69847;SDS011;57143;55.940;37.496;2023-08-31T09:23:20;11.73;;;5.23;;
69847;SDS011;57143;55.940;37.496;2023-08-31T09:25:48;13.85;;;5.95;;
69847;SDS011;57143;55.940;37.496;2023-08-31T09:28:18;12.05;;;5.38;;
69847;SDS011;57143;55.940;37.496;2023-08-31T09:30:47;12.73;;;5.95;;
69847;SDS011;57143;55.940;37.496;2023-08-31T09:33:15;12.25;;;5.60;;
69847;SDS011;57143;55.940;37.496;2023-08-31T09:35:50;16.33;;;5.27;;
69847;SDS011;57143;55.940;37.496;2023-08-31T09:38:19;13.43;;;5.32;;
69847;SDS011;57143;55.940;37.496;2023-08-31T09:40:46;12.60;;;5.70;;
69847;SDS011;57143;55.940;37.496;2023-08-31T09:43:20;16.17;;;4.97;;
69847;SDS011;57143;55.940;37.496;2023-08-31T09:45:47;12.30;;;5.20;;
69847;SDS011;57143;55.940;37.496;2023-08-31T09:48:15;12.87;;;5.10;;
69847;SDS011;57143;55.940;37.496;2023-08-31T09:50:43;11.68;;;5.60;;
69847;SDS011;57143;55.940;37.496;2023-08-31T09:53:11;14.45;;;5.72;;
69847;SDS011;57143;55.940;37.496;2023-08-31T09:55:39;15.65;;;6.50;;
69847;SDS011;57143;55.940;37.496;2023-08-31T09:58:07;12.20;;;6.18;;
69847;SDS011;57143;55.940;37.496;2023-08-31T10:00:36;12.73;;;4.90;;
69847;SDS011;57143;55.940;37.496;2023-08-31T10:03:04;13.07;;;5.93;;
69847;SDS011;57143;55.940;37.496;2023-08-31T10:05:32;22.75;;;5.32;;
69847;SDS011;57143;55.940;37.496;2023-08-31T10:07:59;10.90;;;5.30;;
69847;SDS011;57143;55.940;37.496;2023-08-31T10:10:27;14.43;;;5.63;;
69847;SDS011;57143;55.940;37.496;2023-08-31T10:12:56;15.07;;;5.80;;
69847;SDS011;57143;55.940;37.496;2023-08-31T10:15:24;11.13;;;5.43;;
69847;SDS011;57143;55.940;37.496;2023-08-31T10:17:59;15.75;;;6.20;;
69847;SDS011;57143;55.940;37.496;2023-08-31T10:20:28;13.95;;;5.65;;
69847;SDS011;57143;55.940;37.496;2023-08-31T10:22:57;15.25;;;5.90;;
69847;SDS011;57143;55.940;37.496;2023-08-31T10:25:24;11.33;;;5.20;;
69847;SDS011;57143;55.940;37.496;2023-08-31T10:27:52;13.63;;;5.40;;
69847;SDS011;57143;55.940;37.496;2023-08-31T10:30:25;15.82;;;6.00;;
69847;SDS011;57143;55.940;37.496;2023-08-31T10:35:50;20.35;;;6.13;;
69847;SDS011;57143;55.940;37.496;2023-08-31T10:38:25;11.10;;;5.00;;
69847;SDS011;57143;55.940;37.496;2023-08-31T10:41:16;17.45;;;5.65;;
69847;SDS011;57143;55.940;37.496;2023-08-31T10:43:49;15.10;;;5.70;;
69847;SDS011;57143;55.940;37.496;2023-08-31T10:46:26;11.23;;;4.65;;
69847;SDS011;57143;55.940;37.496;2023-08-31T10:48:56;13.52;;;5.03;;
69847;SDS011;57143;55.940;37.496;2023-08-31T10:51:25;11.63;;;4.87;;
69847;SDS011;57143;55.940;37.496;2023-08-31T10:54:04;9.82;;;4.68;;
69847;SDS011;57143;55.940;37.496;2023-08-31T10:56:33;15.95;;;5.20;;
69847;SDS011;57143;55.940;37.496;2023-08-31T10:59:01;15.35;;;5.15;;
69847;SDS011;57143;55.940;37.496;2023-08-31T11:04:22;15.33;;;4.90;;
69847;SDS011;57143;55.940;37.496;2023-08-31T11:09:42;16.65;;;4.57;;
69847;SDS011;57143;55.940;37.496;2023-08-31T11:12:10;11.93;;;5.10;;
69847;SDS011;57143;55.940;37.496;2023-08-31T11:14:38;11.82;;;5.13;;
69847;SDS011;57143;55.940;37.496;2023-08-31T11:17:06;14.30;;;4.53;;
69847;SDS011;57143;55.940;37.496;2023-08-31T11:19:38;18.05;;;7.40;;
69847;SDS011;57143;55.940;37.496;2023-08-31T11:22:05;15.20;;;4.80;;
69847;SDS011;57143;55.940;37.496;2023-08-31T11:24:35;13.82;;;5.22;;
69847;SDS011;57143;55.940;37.496;2023-08-31T11:27:05;16.75;;;5.35;;
69847;SDS011;57143;55.940;37.496;2023-08-31T11:29:42;12.63;;;4.83;;
69847;SDS011;57143;55.940;37.496;2023-08-31T11:32:10;13.30;;;4.70;;
69847;SDS011;57143;55.940;37.496;2023-08-31T11:34:41;12.48;;;5.55;;
69847;SDS011;57143;55.940;37.496;2023-08-31T11:37:09;15.40;;;5.18;;
69847;SDS011;57143;55.940;37.496;2023-08-31T11:39:37;10.35;;;4.88;;
69847;SDS011;57143;55.940;37.496;2023-08-31T11:42:07;12.43;;;4.43;;
69847;SDS011;57143;55.940;37.496;2023-08-31T11:44:37;12.75;;;5.13;;
69847;SDS011;57143;55.940;37.496;2023-08-31T11:47:10;11.40;;;4.50;;
69847;SDS011;57143;55.940;37.496;2023-08-31T11:49:37;10.45;;;5.03;;
69847;SDS011;57143;55.940;37.496;2023-08-31T11:52:09;10.88;;;5.18;;
69847;SDS011;57143;55.940;37.496;2023-08-31T11:54:37;11.70;;;4.57;;
69847;SDS011;57143;55.940;37.496;2023-08-31T11:57:06;14.60;;;5.53;;
69847;SDS011;57143;55.940;37.496;2023-08-31T11:59:37;12.93;;;5.03;;
69847;SDS011;57143;55.940;37.496;2023-08-31T12:02:06;10.15;;;4.50;;
69847;SDS011;57143;55.940;37.496;2023-08-31T12:04:41;16.15;;;4.82;;
69847;SDS011;57143;55.940;37.496;2023-08-31T12:07:11;15.70;;;4.30;;
69847;SDS011;57143;55.940;37.496;2023-08-31T12:09:42;13.80;;;4.70;;
69847;SDS011;57143;55.940;37.496;2023-08-31T12:12:10;13.52;;;4.90;;
69847;SDS011;57143;55.940;37.496;2023-08-31T12:14:40;17.90;;;4.65;;
69847;SDS011;57143;55.940;37.496;2023-08-31T12:17:08;10.60;;;4.10;;
69847;SDS011;57143;55.940;37.496;2023-08-31T12:19:36;12.23;;;4.03;;
69847;SDS011;57143;55.940;37.496;2023-08-31T12:22:04;9.63;;;4.30;;
69847;SDS011;57143;55.940;37.496;2023-08-31T12:24:43;10.23;;;4.40;;
69847;SDS011;57143;55.940;37.496;2023-08-31T12:27:10;12.63;;;4.97;;
69847;SDS011;57143;55.940;37.496;2023-08-31T12:29:37;10.57;;;4.10;;
69847;SDS011;57143;55.940;37.496;2023-08-31T12:32:05;16.97;;;4.47;;
69847;SDS011;57143;55.940;37.496;2023-08-31T12:34:32;13.95;;;4.93;;
69847;SDS011;57143;55.940;37.496;2023-08-31T12:36:59;12.32;;;4.57;;
69847;SDS011;57143;55.940;37.496;2023-08-31T12:39:29;12.15;;;4.95;;
69847;SDS011;57143;55.940;37.496;2023-08-31T12:41:58;12.30;;;4.40;;
69847;SDS011;57143;55.940;37.496;2023-08-31T12:44:26;12.77;;;4.87;;
69847;SDS011;57143;55.940;37.496;2023-08-31T12:46:53;10.43;;;4.53;;
69847;SDS011;57143;55.940;37.496;2023-08-31T12:49:20;11.85;;;4.82;;
69847;SDS011;57143;55.940;37.496;2023-08-31T12:51:48;10.57;;;4.78;;
69847;SDS011;57143;55.940;37.496;2023-08-31T12:54:16;13.63;;;5.07;;
69847;SDS011;57143;55.940;37.496;2023-08-31T12:56:43;11.80;;;4.70;;
69847;SDS011;57143;55.940;37.496;2023-08-31T12:59:12;10.85;;;4.90;;
69847;SDS011;57143;55.940;37.496;2023-08-31T13:01:39;10.18;;;4.72;;
69847;SDS011;57143;55.940;37.496;2023-08-31T13:04:07;12.27;;;5.28;;
69847;SDS011;57143;55.940;37.496;2023-08-31T13:06:37;10.40;;;4.43;;
69847;SDS011;57143;55.940;37.496;2023-08-31T13:09:04;12.23;;;4.70;;
69847;SDS011;57143;55.940;37.496;2023-08-31T13:11:34;10.52;;;4.30;;
69847;SDS011;57143;55.940;37.496;2023-08-31T13:14:01;12.23;;;5.47;;
69847;SDS011;57143;55.940;37.496;2023-08-31T13:16:30;8.98;;;4.50;;
69847;SDS011;57143;55.940;37.496;2023-08-31T13:18:58;12.63;;;4.50;;
69847;SDS011;57143;55.940;37.496;2023-08-31T13:21:25;14.37;;;5.07;;
69847;SDS011;57143;55.940;37.496;2023-08-31T13:23:52;11.25;;;4.63;;
69847;SDS011;57143;55.940;37.496;2023-08-31T13:26:20;13.00;;;5.18;;
69847;SDS011;57143;55.940;37.496;2023-08-31T13:28:47;13.93;;;5.00;;
69847;SDS011;57143;55.940;37.496;2023-08-31T13:31:14;10.45;;;4.65;;
69847;SDS011;57143;55.940;37.496;2023-08-31T13:33:43;11.77;;;4.63;;
69847;SDS011;57143;55.940;37.496;2023-08-31T13:36:10;14.40;;;5.35;;
69847;SDS011;57143;55.940;37.496;2023-08-31T13:38:37;10.38;;;4.60;;
69847;SDS011;57143;55.940;37.496;2023-08-31T13:41:04;11.40;;;5.00;;
69847;SDS011;57143;55.940;37.496;2023-08-31T13:43:33;12.10;;;5.50;;
69847;SDS011;57143;55.940;37.496;2023-08-31T13:46:01;10.37;;;5.10;;
69847;SDS011;57143;55.940;37.496;2023-08-31T13:48:29;12.20;;;4.32;;
69847;SDS011;57143;55.940;37.496;2023-08-31T13:50:58;9.85;;;5.35;;
69847;SDS011;57143;55.940;37.496;2023-08-31T13:53:25;10.27;;;4.65;;
69847;SDS011;57143;55.940;37.496;2023-08-31T13:55:52;13.95;;;4.88;;
69847;SDS011;57143;55.940;37.496;2023-08-31T13:58:19;16.27;;;5.27;;
69847;SDS011;57143;55.940;37.496;2023-08-31T14:00:47;14.52;;;4.72;;
69847;SDS011;57143;55.940;37.496;2023-08-31T14:03:14;13.80;;;5.05;;
69847;SDS011;57143;55.940;37.496;2023-08-31T14:05:47;11.98;;;4.65;;
69847;SDS011;57143;55.940;37.496;2023-08-31T14:08:16;12.48;;;5.20;;
69847;SDS011;57143;55.940;37.496;2023-08-31T14:10:43;11.10;;;4.60;;
69847;SDS011;57143;55.940;37.496;2023-08-31T14:13:10;12.60;;;5.00;;
69847;SDS011;57143;55.940;37.496;2023-08-31T14:15:37;11.32;;;4.78;;
69847;SDS011;57143;55.940;37.496;2023-08-31T14:18:11;9.63;;;4.72;;
69847;SDS011;57143;55.940;37.496;2023-08-31T14:20:38;19.30;;;5.35;;
69847;SDS011;57143;55.940;37.496;2023-08-31T14:23:06;12.47;;;5.30;;
69847;SDS011;57143;55.940;37.496;2023-08-31T14:25:35;13.25;;;4.90;;
69847;SDS011;57143;55.940;37.496;2023-08-31T14:28:03;15.45;;;5.28;;
69847;SDS011;57143;55.940;37.496;2023-08-31T14:30:31;15.60;;;5.30;;
69847;SDS011;57143;55.940;37.496;2023-08-31T14:32:59;11.35;;;4.60;;
69847;SDS011;57143;55.940;37.496;2023-08-31T14:35:26;12.40;;;4.30;;
69847;SDS011;57143;55.940;37.496;2023-08-31T14:37:54;10.35;;;4.25;;